Time;durP1;ratioP1;P1;durP2;ratioP2;P2;SDS_P1;SDS_P2;PMS_P1;PMS_P2;Temp;Humidity;BMP_temperature;BMP_pressure;BME280_temperature;BME280_humidity;BME280_pressure;Samples;Min_cycle;Max_cycle;Signal;HPM_P1;HPM_P2
2022/05/26 00:01:09;;;;;;;10.05;2.90;;;;;;;11.15;79.52;99509.09;5082617;28;20078;-73
2022/05/26 00:03:36;;;;;;;13.90;2.97;;;;;;;11.22;79.75;99509.78;5083050;28;20047;-73
2022/05/26 00:06:02;;;;;;;9.77;3.65;;;;;;;11.27;79.82;99491.47;5083049;28;20024;-73
2022/05/26 00:08:28;;;;;;;8.43;2.97;;;;;;;11.34;80.59;99492.19;5083098;28;20035;-74
2022/05/26 00:10:55;;;;;;;10.00;3.47;;;;;;;11.36;80.45;99483.44;5082688;28;20012;-73
2022/05/26 00:13:21;;;;;;;11.48;3.00;;;;;;;11.46;80.19;99476.25;5082921;28;20073;-73
2022/05/26 00:15:46;;;;;;;14.45;2.85;;;;;;;11.53;80.25;99485.56;5082547;28;20087;-73
2022/05/26 00:18:12;;;;;;;14.80;2.53;;;;;;;11.60;80.22;99475.00;5064716;28;20033;-72
2022/05/26 00:20:37;;;;;;;8.00;2.72;;;;;;;11.70;80.03;99473.00;5082957;28;20012;-74
2022/05/26 00:23:02;;;;;;;15.68;3.40;;;;;;;11.63;80.04;99454.97;5082731;28;20449;-71
2022/05/26 00:25:28;;;;;;;9.02;3.70;;;;;;;11.68;80.16;99474.81;5082488;28;20024;-72
2022/05/26 00:27:54;;;;;;;12.25;3.53;;;;;;;11.60;79.83;99449.00;5082857;28;20028;-72
2022/05/26 00:30:19;;;;;;;12.63;2.92;;;;;;;11.61;80.49;99469.75;5082147;28;20043;-73
2022/05/26 00:32:44;;;;;;;8.18;3.30;;;;;;;11.59;80.16;99470.72;5082780;28;20024;-73
2022/05/26 00:35:10;;;;;;;13.25;2.97;;;;;;;11.48;80.28;99452.81;5082854;28;20028;-72
2022/05/26 00:37:35;;;;;;;9.68;3.33;;;;;;;11.46;80.55;99462.38;5082372;28;20084;-72
2022/05/26 00:40:02;;;;;;;17.52;3.63;;;;;;;11.40;80.59;99461.69;5082689;28;20044;-71
2022/05/26 00:42:28;;;;;;;13.13;3.35;;;;;;;11.32;80.80;99458.44;5082380;28;20048;-71
2022/05/26 00:44:53;;;;;;;8.15;2.28;;;;;;;11.27;80.94;99452.50;5082898;28;20017;-72
2022/05/26 00:47:25;;;;;;;11.52;2.38;;;;;;;11.23;80.85;99443.94;5083094;28;20025;-73
2022/05/26 00:49:59;;;;;;;6.40;2.15;;;;;;;11.25;80.67;99433.50;5082926;28;20032;-73
2022/05/26 00:52:33;;;;;;;12.55;2.35;;;;;;;11.25;80.26;99417.91;5082706;28;20085;-72
2022/05/26 00:55:07;;;;;;;15.02;2.83;;;;;;;11.19;80.19;99431.06;5082781;28;20031;-73
2022/05/26 00:57:45;;;;;;;6.38;2.45;;;;;;;11.08;80.30;99419.22;5082788;28;20029;-72
2022/05/26 01:00:15;;;;;;;10.30;3.45;;;;;;;10.90;80.81;99421.41;5082705;28;20031;-73
2022/05/26 01:03:03;;;;;;;8.93;3.30;;;;;;;10.73;81.93;99416.66;5083355;28;20085;-71
2022/05/26 01:05:37;;;;;;;9.43;3.30;;;;;;;10.65;81.86;99419.41;5083152;28;20032;-73
2022/05/26 01:08:05;;;;;;;12.95;3.05;;;;;;;10.46;83.16;99415.53;5065162;28;20020;-71
2022/05/26 01:10:30;;;;;;;14.68;3.85;;;;;;;10.36;83.66;99401.94;5082772;28;20031;-71
2022/05/26 01:12:56;;;;;;;14.30;3.40;;;;;;;10.29;84.06;99398.63;5083255;28;20013;-72
2022/05/26 01:15:23;;;;;;;16.70;3.40;;;;;;;10.25;84.24;99379.72;5082535;28;20427;-69
2022/05/26 01:17:57;;;;;;;15.73;3.80;;;;;;;10.26;84.50;99372.75;5082890;28;20511;-71
2022/05/26 01:20:54;;;;;;;15.82;3.10;;;;;;;10.20;84.71;99384.16;5082903;28;20456;-74
2022/05/26 01:23:44;;;;;;;12.52;4.03;;;;;;;10.04;84.94;99378.44;5082744;28;20032;-75
2022/05/26 01:27:00;;;;;;;12.10;3.30;;;;;;;9.94;85.49;99379.53;5082869;28;20025;-75
2022/05/26 01:29:46;;;;;;;8.23;3.25;;;;;;;9.81;86.11;99377.22;5020053;28;20347;-74
2022/05/26 01:32:34;;;;;;;9.27;3.28;;;;;;;9.83;86.37;99374.59;5020179;28;20042;-73
2022/05/26 01:35:28;;;;;;;19.52;4.30;;;;;;;9.64;87.63;99372.41;5020676;28;20084;-73
2022/05/26 01:38:20;;;;;;;10.65;3.88;;;;;;;9.77;87.98;99360.91;5023391;28;20030;-73
2022/05/26 01:40:52;;;;;;;12.23;4.13;;;;;;;9.69;88.56;99351.56;5023905;28;20061;-75
2022/05/26 01:43:25;;;;;;;9.57;2.80;;;;;;;9.70;88.92;99335.13;5023871;28;20214;-75
2022/05/26 01:46:18;;;;;;;10.55;3.45;;;;;;;9.58;89.62;99337.13;5023475;28;20038;-75
2022/05/26 01:48:50;;;;;;;7.40;2.20;;;;;;;9.60;90.16;99337.91;5023883;28;20029;-75
2022/05/26 01:51:26;;;;;;;11.27;3.72;;;;;;;9.50;90.90;99329.53;5023366;28;20144;-76
2022/05/26 01:54:33;;;;;;;9.43;3.80;;;;;;;9.44;91.74;99323.59;5023794;28;20178;-75
2022/05/26 01:57:13;;;;;;;9.70;4.15;;;;;;;9.40;92.68;99325.41;5018172;28;20321;-76
2022/05/26 01:59:51;;;;;;;13.25;3.70;;;;;;;9.42;93.04;99331.41;5023172;28;20536;-74
2022/05/26 02:02:28;;;;;;;10.30;3.58;;;;;;;9.41;93.29;99312.41;5023670;28;20122;-74
2022/05/26 02:05:20;;;;;;;7.03;3.22;;;;;;;9.52;93.95;99301.81;5051242;28;20076;-74
2022/05/26 02:08:02;;;;;;;15.20;4.20;;;;;;;9.59;94.55;99305.13;5076508;28;20092;-75
2022/05/26 02:10:42;;;;;;;12.00;4.18;;;;;;;9.71;95.53;99295.38;5085661;28;20039;-74
2022/05/26 02:13:18;;;;;;;9.98;3.63;;;;;;;9.83;96.37;99307.19;5085951;28;20053;-73
2022/05/26 02:15:50;;;;;;;24.90;6.25;;;;;;;9.97;97.06;99299.13;5085533;28;20025;-75
2022/05/26 02:18:21;;;;;;;18.98;5.63;;;;;;;10.05;97.42;99286.78;5085780;28;20080;-75
2022/05/26 02:20:54;;;;;;;20.70;6.78;;;;;;;10.20;97.73;99293.38;5085640;28;20047;-76
2022/05/26 02:23:43;;;;;;;23.08;6.13;;;;;;;10.30;98.01;99283.63;5085666;28;20082;-76
2022/05/26 02:26:09;;;;;;;24.35;5.00;;;;;;;10.41;98.51;99293.72;5085682;28;20025;-76
2022/05/26 02:31:23;;;;;;;21.83;6.45;;;;;;;10.54;98.90;99289.09;5085097;28;20116;-76
2022/05/26 02:33:52;;;;;;;28.13;7.57;;;;;;;10.59;98.96;99289.78;5085418;28;20108;-75
2022/05/26 02:36:17;;;;;;;22.80;7.70;;;;;;;10.64;99.16;99297.47;5085346;28;20092;-75
2022/05/26 02:38:43;;;;;;;28.20;9.05;;;;;;;10.65;99.34;99281.84;5085586;28;20074;-76
2022/05/26 02:41:08;;;;;;;29.60;8.45;;;;;;;10.72;99.14;99279.94;5085040;28;20055;-75
2022/05/26 02:43:34;;;;;;;22.33;8.30;;;;;;;10.75;99.16;99292.00;5085121;28;20091;-76
2022/05/26 02:46:07;;;;;;;18.25;6.50;;;;;;;10.75;99.16;99292.00;5084686;28;20506;-76
2022/05/26 02:48:54;;;;;;;27.63;8.25;;;;;;;10.77;99.17;99279.81;5084898;28;20052;-75
2022/05/26 02:51:42;;;;;;;25.10;7.40;;;;;;;10.74;98.86;99290.28;5084830;28;20043;-77
2022/05/26 02:54:40;;;;;;;19.50;7.25;;;;;;;10.70;98.80;99288.69;5084968;28;20088;-77
2022/05/26 02:57:14;;;;;;;24.92;7.63;;;;;;;10.61;98.44;99274.19;5060774;28;20124;-76
2022/05/26 03:00:02;;;;;;;28.67;8.52;;;;;;;10.60;98.51;99280.28;5084568;28;20043;-76
2022/05/26 03:02:46;;;;;;;29.27;8.02;;;;;;;10.54;98.68;99279.53;5084631;28;20040;-76
2022/05/26 03:05:18;;;;;;;24.73;8.93;;;;;;;10.53;98.70;99274.38;5084567;28;20080;-76
2022/05/26 03:07:47;;;;;;;19.95;6.70;;;;;;;10.58;98.82;99276.88;5084681;28;20024;-76
2022/05/26 03:10:15;;;;;;;30.88;8.07;;;;;;;10.61;98.77;99274.19;5084270;28;20020;-77
2022/05/26 03:12:40;;;;;;;24.08;6.80;;;;;;;10.61;98.99;99267.25;5084497;28;20021;-75
2022/05/26 03:15:08;;;;;;;24.98;8.20;;;;;;;10.63;99.35;99270.66;5084349;28;20043;-76
2022/05/26 03:17:34;;;;;;;27.30;8.70;;;;;;;10.73;99.54;99267.81;5084630;28;20038;-74
2022/05/26 03:19:59;;;;;;;17.23;7.88;;;;;;;10.78;99.26;99268.56;5084435;28;20155;-73
2022/05/26 03:22:25;;;;;;;29.02;7.85;;;;;;;10.83;99.32;99266.66;5084188;28;20020;-73
2022/05/26 03:24:51;;;;;;;31.98;9.15;;;;;;;10.83;99.21;99258.88;5083928;28;20028;-72
2022/05/26 03:27:17;;;;;;;29.90;9.18;;;;;;;10.90;99.22;99264.75;5083958;28;20025;-72
2022/05/26 03:29:42;;;;;;;24.30;7.78;;;;;;;10.90;98.98;99256.97;5083884;28;20031;-70
2022/05/26 03:32:08;;;;;;;26.10;9.25;;;;;;;10.96;98.56;99259.38;5084039;28;20021;-70
2022/05/26 03:42:49;;;;;;;20.30;6.13;;;;;;;10.97;98.51;99244.66;5084447;28;20055;-70
2022/05/26 03:45:22;;;;;;;21.30;6.63;;;;;;;10.95;98.51;99241.25;5084014;28;20051;-71
2022/05/26 03:47:49;;;;;;;22.05;8.40;;;;;;;10.96;98.35;99248.16;5083827;28;20027;-71
2022/05/26 03:50:15;;;;;;;25.45;6.22;;;;;;;10.95;98.30;99246.44;5083703;28;20364;-70
2022/05/26 03:52:40;;;;;;;22.67;6.20;;;;;;;10.94;98.21;99242.16;5083957;28;20230;-72
2022/05/26 03:55:06;;;;;;;20.50;7.40;;;;;;;10.85;98.46;99241.50;5083657;28;20021;-74
2022/05/26 03:57:31;;;;;;;32.63;7.60;;;;;;;10.86;98.49;99239.78;5083715;28;20033;-73
2022/05/26 03:59:57;;;;;;;19.92;6.85;;;;;;;10.79;98.46;99228.72;5083389;28;20116;-73
2022/05/26 04:02:22;;;;;;;11.30;5.78;;;;;;;10.73;98.37;99234.06;5083699;28;20020;-74
2022/05/26 04:04:48;;;;;;;20.23;7.65;;;;;;;10.71;98.48;99223.75;5083687;28;20103;-75
2022/05/26 04:07:13;;;;;;;30.92;9.25;;;;;;;10.73;98.42;99226.28;5083656;28;20056;-75
2022/05/26 04:09:40;;;;;;;22.02;6.60;;;;;;;10.69;98.58;99222.91;5083621;28;20028;-75
2022/05/26 04:12:08;;;;;;;24.40;6.40;;;;;;;10.61;99.03;99230.91;5083478;28;20020;-76
2022/05/26 04:14:33;;;;;;;35.55;6.63;;;;;;;10.65;99.34;99229.09;5083782;28;20024;-74
2022/05/26 04:16:59;;;;;;;23.17;5.75;;;;;;;10.63;99.37;99236.06;5083402;28;20048;-74
2022/05/26 04:19:25;;;;;;;26.23;5.15;;;;;;;10.60;99.53;99228.38;5083395;28;20119;-74
2022/05/26 04:24:35;;;;;;;18.40;5.43;;;;;;;10.53;99.15;99235.47;5083636;28;20055;-74
2022/05/26 04:27:00;;;;;;;22.10;4.03;;;;;;;10.51;99.06;99232.09;5083324;28;20021;-74
2022/05/26 04:29:27;;;;;;;17.98;4.82;;;;;;;10.52;99.03;99236.38;5083341;28;20475;-73
2022/05/26 04:31:52;;;;;;;18.55;5.40;;;;;;;10.58;99.40;99232.75;5083043;28;20044;-72
2022/05/26 04:34:18;;;;;;;20.90;3.53;;;;;;;10.57;98.98;99225.88;5083348;28;20070;-72
2022/05/26 04:36:44;;;;;;;6.25;2.42;;;;;;;10.57;98.97;99229.31;5083178;28;20059;-73
2022/05/26 04:39:09;;;;;;;22.38;4.90;;;;;;;10.58;99.02;99231.00;5083112;28;20044;-72
2022/05/26 04:41:35;;;;;;;20.08;5.72;;;;;;;10.57;99.18;99231.91;5082969;28;20040;-72
2022/05/26 04:44:00;;;;;;;25.15;5.20;;;;;;;10.61;99.13;99236.13;5083141;28;20071;-72
2022/05/26 04:46:26;;;;;;;23.08;4.95;;;;;;;10.66;99.25;99235.97;5083054;28;20051;-72
2022/05/26 04:48:51;;;;;;;17.65;3.05;;;;;;;10.66;99.10;99246.38;5083120;28;20256;-70
2022/05/26 04:51:18;;;;;;;34.00;6.53;;;;;;;10.68;99.30;99234.22;5082751;28;20048;-72
2022/05/26 04:53:44;;;;;;;27.65;5.60;;;;;;;10.76;99.34;99266.00;5082897;28;20028;-73
2022/05/26 04:56:10;;;;;;;16.50;4.70;;;;;;;10.85;99.37;99264.03;5083245;28;20039;-73
2022/05/26 04:58:35;;;;;;;18.98;4.63;;;;;;;10.91;99.24;99262.09;5083124;28;20020;-73
2022/05/26 05:01:11;;;;;;;25.38;5.07;;;;;;;10.94;99.03;99249.94;5082729;28;20020;-73
2022/05/26 05:03:36;;;;;;;20.88;4.28;;;;;;;11.02;98.68;99264.41;5082993;28;20020;-73
2022/05/26 05:06:01;;;;;;;22.95;5.18;;;;;;;10.95;98.08;99264.63;5064743;28;20259;-74
2022/05/26 05:08:26;;;;;;;17.48;4.53;;;;;;;10.85;97.56;99257.09;5064952;28;20448;-74
2022/05/26 05:10:52;;;;;;;25.63;5.28;;;;;;;10.89;97.24;99256.09;5083573;28;20040;-73
2022/05/26 05:13:17;;;;;;;25.80;5.15;;;;;;;10.93;97.44;99266.44;5086824;28;20031;-71
2022/05/26 05:16:03;;;;;;;18.83;3.90;;;;;;;11.06;97.04;99259.09;5086459;28;20024;-73
2022/05/26 05:18:28;;;;;;;20.90;4.70;;;;;;;11.22;96.94;99264.72;5086762;28;20056;-71
2022/05/26 05:20:56;;;;;;;27.15;5.53;;;;;;;11.30;96.28;99261.88;5086522;28;20025;-70
2022/05/26 05:23:22;;;;;;;10.68;2.78;;;;;;;11.30;95.75;99265.34;5086588;28;20111;-71
2022/05/26 05:25:51;;;;;;;14.45;2.70;;;;;;;11.30;94.57;99254.09;5086526;28;20140;-72
2022/05/26 05:28:39;;;;;;;20.90;3.30;;;;;;;11.29;93.72;99266.25;5086300;28;20039;-75
2022/05/26 05:31:14;;;;;;;15.55;3.67;;;;;;;11.43;93.35;99270.16;5067247;28;20107;-73
2022/05/26 05:33:46;;;;;;;18.63;4.15;;;;;;;11.37;93.18;99259.06;5086236;28;20047;-75
2022/05/26 05:36:28;;;;;;;22.70;3.50;;;;;;;11.33;92.97;99265.25;5087664;28;20020;-74
2022/05/26 05:38:55;;;;;;;12.88;3.65;;;;;;;11.38;92.49;99278.09;5086560;28;20028;-76
2022/05/26 05:41:21;;;;;;;17.13;3.55;;;;;;;11.35;92.98;99268.66;5085957;28;20037;-76
2022/05/26 05:43:47;;;;;;;22.20;3.83;;;;;;;11.56;93.22;99273.25;5086070;28;20032;-76
2022/05/26 05:46:14;;;;;;;11.05;2.33;;;;;;;11.77;93.56;99277.75;5085856;28;20507;-72
2022/05/26 05:48:43;;;;;;;22.83;5.25;;;;;;;11.96;92.25;99273.75;5085961;28;20028;-73
2022/05/26 05:51:09;;;;;;;19.52;4.03;;;;;;;12.09;91.11;99274.22;5085821;28;20050;-73
2022/05/26 05:53:34;;;;;;;14.45;4.30;;;;;;;12.08;90.24;99280.31;5086022;28;20020;-74
2022/05/26 05:56:00;;;;;;;14.35;3.17;;;;;;;12.40;91.22;99280.97;5086306;28;20020;-73
2022/05/26 05:58:25;;;;;;;16.90;3.83;;;;;;;12.84;89.77;99269.06;5085814;28;20050;-73
2022/05/26 06:00:50;;;;;;;17.55;3.78;;;;;;;13.13;89.47;99272.38;5085374;28;20077;-73
2022/05/26 06:03:16;;;;;;;17.48;3.05;;;;;;;13.25;86.42;99274.50;5085781;28;20039;-73
2022/05/26 06:05:41;;;;;;;12.43;3.08;;;;;;;13.30;84.94;99276.06;5085658;28;20352;-73
2022/05/26 06:08:07;;;;;;;18.27;4.47;;;;;;;13.23;84.00;99281.53;5085846;28;20052;-73
2022/05/26 06:10:32;;;;;;;16.52;3.70;;;;;;;13.11;84.33;99282.84;5085748;28;20078;-73
2022/05/26 06:12:58;;;;;;;17.30;3.22;;;;;;;12.97;81.78;99290.31;5085783;28;20468;-73
2022/05/26 06:15:24;;;;;;;20.58;3.47;;;;;;;12.83;83.03;99283.84;5085414;28;20024;-73
2022/05/26 06:17:50;;;;;;;11.38;2.88;;;;;;;12.66;82.13;99287.06;5085611;28;20025;-73
2022/05/26 06:20:15;;;;;;;14.20;3.63;;;;;;;12.57;82.60;99283.00;5085250;28;20070;-73
2022/05/26 06:22:46;;;;;;;19.00;4.10;;;;;;;12.52;82.47;99287.53;5085026;28;20036;-73
2022/05/26 06:25:13;;;;;;;17.75;3.35;;;;;;;12.51;82.71;99289.28;5085460;28;20047;-73
2022/05/26 06:30:26;;;;;;;19.08;4.00;;;;;;;12.39;81.28;99289.72;5085067;28;20031;-72
2022/05/26 06:38:34;;;;;;;21.83;3.63;;;;;;;12.04;82.90;99295.16;5085437;28;20039;-73
2022/05/26 06:42:05;;;;;;;13.57;3.65;;;;;;;12.03;83.81;99296.91;5063619;28;20041;-73
2022/05/26 06:43:44;;;;;;;14.48;3.30;;;;;;;11.92;83.16;99295.56;5064832;28;20570;-73
2022/05/26 06:46:10;;;;;;;15.50;3.25;;;;;;;11.81;83.17;99298.47;5064561;28;20025;-73
2022/05/26 06:48:35;;;;;;;15.00;3.40;;;;;;;11.83;83.09;99307.09;5063635;28;20022;-74
2022/05/26 06:51:00;;;;;;;13.55;3.40;;;;;;;11.99;84.33;99310.06;5064819;28;20045;-74
2022/05/26 06:53:26;;;;;;;15.73;2.85;;;;;;;12.35;83.90;99309.78;5065272;28;20385;-74
2022/05/26 06:55:51;;;;;;;15.80;3.53;;;;;;;12.57;82.40;99310.81;5064911;28;20021;-74
2022/05/26 06:58:16;;;;;;;14.20;3.67;;;;;;;12.60;82.16;99302.88;5063536;28;20203;-74
2022/05/26 07:00:43;;;;;;;16.35;3.13;;;;;;;12.53;81.08;99302.25;5064745;28;20024;-74
2022/05/26 07:03:08;;;;;;;19.45;2.72;;;;;;;12.28;80.38;99300.47;5065200;28;20070;-74
2022/05/26 07:05:37;;;;;;;16.67;2.58;;;;;;;12.25;80.09;99314.44;5065811;28;20029;-74
2022/05/26 07:08:03;;;;;;;11.65;2.65;;;;;;;12.02;79.35;99302.16;5065947;28;20040;-72
2022/05/26 07:10:30;;;;;;;5.90;1.33;;;;;;;11.88;80.13;99316.47;5065241;28;20047;-74
2022/05/26 07:12:55;;;;;;;12.05;2.95;;;;;;;11.87;80.02;99329.47;5062970;28;20032;-73
2022/05/26 07:15:20;;;;;;;15.88;3.10;;;;;;;11.82;80.38;99327.03;5062937;28;20017;-74
2022/05/26 07:17:46;;;;;;;11.90;2.85;;;;;;;11.93;81.21;99338.84;5064701;28;20100;-72
2022/05/26 07:20:12;;;;;;;14.05;2.67;;;;;;;11.85;80.11;99321.72;5064695;28;20100;-72
2022/05/26 07:22:37;;;;;;;12.50;3.03;;;;;;;11.93;80.70;99338.84;5064231;28;20021;-72
2022/05/26 07:25:04;;;;;;;9.65;2.22;;;;;;;12.10;79.29;99325.34;5064342;28;20032;-73
2022/05/26 07:27:30;;;;;;;14.70;2.40;;;;;;;12.16;77.87;99316.50;5062635;28;20092;-72
2022/05/26 07:29:55;;;;;;;10.48;3.10;;;;;;;12.24;78.24;99341.34;5063623;28;20025;-73
2022/05/26 07:32:20;;;;;;;11.73;2.28;;;;;;;12.46;77.43;99332.00;5063756;28;20029;-74
2022/05/26 07:34:45;;;;;;;13.70;2.55;;;;;;;12.68;76.69;99339.94;5063268;28;20027;-73
2022/05/26 07:42:39;;;;;;;18.92;3.45;;;;;;;13.02;75.14;99333.53;5083683;28;20067;-74
2022/05/26 07:45:08;;;;;;;17.58;2.45;;;;;;;13.18;74.93;99324.31;5083778;28;20024;-74
2022/05/26 07:47:33;;;;;;;19.23;2.92;;;;;;;13.38;73.04;99347.03;5065735;28;20027;-73
2022/05/26 07:49:59;;;;;;;15.75;3.03;;;;;;;13.57;73.74;99359.41;5065699;28;20017;-73
2022/05/26 07:52:24;;;;;;;23.77;3.58;;;;;;;13.65;72.35;99349.53;5083925;28;20096;-74
2022/05/26 07:54:50;;;;;;;13.93;3.30;;;;;;;13.69;72.97;99348.50;5084422;28;20487;-74
2022/05/26 07:57:26;;;;;;;13.65;3.83;;;;;;;13.68;72.18;99358.97;5083768;28;20029;-74
2022/05/26 07:59:52;;;;;;;10.68;2.13;;;;;;;13.64;71.78;99358.28;5083917;28;20028;-73
2022/05/26 08:02:18;;;;;;;19.65;3.33;;;;;;;13.62;70.79;99363.53;5083568;28;20089;-74
2022/05/26 08:04:44;;;;;;;15.90;3.40;;;;;;;13.68;70.35;99366.81;5083699;28;20074;-74
2022/05/26 08:07:10;;;;;;;20.85;3.65;;;;;;;13.70;70.77;99371.06;5083425;28;20020;-73
2022/05/26 08:09:37;;;;;;;20.20;3.97;;;;;;;13.72;70.39;99373.63;5083481;28;20503;-74
2022/05/26 08:12:05;;;;;;;23.90;4.28;;;;;;;13.80;70.59;99375.94;5083385;28;20029;-72
2022/05/26 08:14:30;;;;;;;23.98;4.35;;;;;;;13.85;70.04;99372.22;5083401;28;20077;-72
2022/05/26 08:16:55;;;;;;;10.75;2.30;;;;;;;13.84;67.70;99378.38;5083124;28;20035;-72
2022/05/26 08:19:21;;;;;;;16.48;2.90;;;;;;;14.04;68.33;99371.50;5065479;28;20021;-72
2022/05/26 08:21:49;;;;;;;14.20;2.40;;;;;;;14.31;66.39;99373.94;5083239;28;20035;-72
2022/05/26 08:24:16;;;;;;;13.52;3.08;;;;;;;14.63;66.10;99389.19;5083398;28;20024;-71
2022/05/26 08:26:41;;;;;;;15.63;3.33;;;;;;;15.10;65.19;99376.78;5083269;28;20028;-72
2022/05/26 08:29:07;;;;;;;15.55;2.55;;;;;;;15.80;64.97;99376.25;5083249;28;20036;-73
2022/05/26 08:31:32;;;;;;;11.60;2.35;;;;;;;16.47;63.18;99375.72;5064650;28;20016;-73
2022/05/26 08:33:57;;;;;;;12.02;2.38;;;;;;;17.03;58.96;99382.56;5083470;28;20081;-73
2022/05/26 08:36:24;;;;;;;18.05;2.67;;;;;;;17.05;58.26;99378.09;5083109;28;20029;-73
2022/05/26 08:38:50;;;;;;;9.85;2.05;;;;;;;17.22;55.13;99387.72;5083448;28;20024;-72
2022/05/26 08:41:24;;;;;;;9.85;2.25;;;;;;;17.32;54.68;99387.22;5083094;28;20406;-73
2022/05/26 08:44:01;;;;;;;13.05;2.17;;;;;;;17.22;54.97;99386.88;5065187;28;20025;-73
2022/05/26 08:46:38;;;;;;;11.77;2.92;;;;;;;17.03;55.10;99392.22;5082914;28;20465;-73
2022/05/26 08:49:09;;;;;;;15.30;2.95;;;;;;;16.77;56.10;99412.72;5083410;28;20107;-72
2022/05/26 08:52:08;;;;;;;15.95;3.45;;;;;;;16.44;56.48;99391.59;5083037;28;20054;-71
2022/05/26 08:54:58;;;;;;;18.33;3.47;;;;;;;16.18;56.54;99405.97;5079958;28;20040;-73
2022/05/26 08:57:28;;;;;;;16.23;3.45;;;;;;;16.22;57.00;99405.75;5083307;28;20073;-72
2022/05/26 08:59:54;;;;;;;13.50;3.22;;;;;;;16.22;56.06;99410.13;5083024;28;20024;-73
2022/05/26 09:02:29;;;;;;;18.00;3.67;;;;;;;15.98;57.20;99421.72;5082907;28;20031;-73
2022/05/26 09:04:58;;;;;;;23.42;3.05;;;;;;;15.88;57.85;99430.03;5065350;28;20052;-74
2022/05/26 09:13:09;;;;;;;23.55;3.70;;;;;;;15.19;58.62;99415.59;5083226;28;20031;-71
2022/05/26 09:15:36;;;;;;;13.32;3.10;;;;;;;14.86;59.74;99434.41;5082540;28;20063;-72
2022/05/26 09:18:11;;;;;;;19.00;4.13;;;;;;;14.84;59.73;99421.41;5083064;28;20084;-75
2022/05/26 09:20:41;;;;;;;15.15;2.78;;;;;;;15.41;58.50;99413.78;5082608;28;20034;-67
2022/05/26 09:23:15;;;;;;;14.02;2.45;;;;;;;15.76;57.08;99428.81;5082883;28;20025;-65
2022/05/26 09:25:49;;;;;;;10.73;2.90;;;;;;;15.84;55.75;99429.31;5083024;28;20024;-67
2022/05/26 09:28:35;;;;;;;12.60;3.05;;;;;;;16.23;56.70;99422.28;5082785;28;20051;-66
2022/05/26 09:31:29;;;;;;;18.83;3.92;;;;;;;16.39;55.14;99425.03;5067768;28;20037;-66
2022/05/26 09:34:08;;;;;;;18.45;2.95;;;;;;;16.15;55.61;99456.69;5082474;28;20461;-66
2022/05/26 09:36:43;;;;;;;24.88;4.63;;;;;;;15.94;55.96;99445.44;5082651;28;20025;-65
2022/05/26 09:39:09;;;;;;;16.10;2.72;;;;;;;15.93;57.08;99455.06;5082766;28;20028;-67
2022/05/26 09:41:46;;;;;;;18.40;3.33;;;;;;;15.74;56.33;99444.59;5081994;28;20093;-65
2022/05/26 09:44:25;;;;;;;14.77;3.08;;;;;;;15.85;56.72;99460.66;5082492;28;20024;-66
2022/05/26 09:46:54;;;;;;;23.85;3.75;;;;;;;16.18;55.95;99437.41;5082015;28;20095;-67
2022/05/26 09:49:23;;;;;;;16.50;3.15;;;;;;;16.47;54.18;99435.13;5081956;28;20036;-65
2022/05/26 09:51:49;;;;;;;22.45;4.38;;;;;;;16.26;54.31;99468.44;5081797;28;20667;-65
2022/05/26 09:54:31;;;;;;;27.45;4.85;;;;;;;16.50;54.39;99458.59;5081989;28;20026;-66
2022/05/26 09:56:56;;;;;;;18.60;3.78;;;;;;;16.63;53.95;99465.84;5082926;28;20097;-65
2022/05/26 09:59:32;;;;;;;11.25;2.90;;;;;;;16.78;53.87;99465.06;5085737;28;20036;-66
2022/05/26 10:02:05;;;;;;;16.90;3.45;;;;;;;16.78;52.98;99478.19;5085294;28;20093;-65
2022/05/26 10:04:56;;;;;;;17.42;2.95;;;;;;;16.91;52.89;99467.06;5085726;28;20020;-66
2022/05/26 10:07:40;;;;;;;14.43;3.88;;;;;;;17.15;52.27;99487.78;5085150;28;20504;-66
2022/05/26 10:10:32;;;;;;;17.98;3.40;;;;;;;17.02;51.85;99488.38;5085429;28;20094;-65
2022/05/26 10:13:16;;;;;;;18.70;3.58;;;;;;;16.69;52.03;99500.44;5085312;28;20029;-66
2022/05/26 10:15:50;;;;;;;18.08;3.95;;;;;;;16.52;52.61;99482.09;5084638;28;20028;-66
2022/05/26 10:18:45;;;;;;;17.17;4.13;;;;;;;16.50;52.57;99490.03;5085020;28;20025;-65
2022/05/26 10:21:20;;;;;;;19.90;3.35;;;;;;;16.48;52.29;99494.47;5085042;28;20115;-66
2022/05/26 10:23:54;;;;;;;15.65;3.13;;;;;;;16.52;52.12;99503.03;5084792;28;20029;-67
2022/05/26 10:26:38;;;;;;;13.55;3.22;;;;;;;16.39;53.12;99508.84;5085069;28;20028;-66
2022/05/26 10:29:09;;;;;;;16.88;3.97;;;;;;;16.55;52.93;99508.97;5084825;28;20031;-66
2022/05/26 10:31:53;;;;;;;20.33;4.00;;;;;;;16.84;51.02;99508.47;5066311;28;20020;-65
2022/05/26 10:34:43;;;;;;;22.20;4.22;;;;;;;16.66;52.13;99510.22;5084708;28;20052;-65
2022/05/26 10:37:36;;;;;;;29.08;4.32;;;;;;;16.61;52.27;99518.31;5084728;28;20094;-65
2022/05/26 10:40:31;;;;;;;16.88;4.15;;;;;;;16.79;51.61;99511.31;5084801;28;20040;-64
2022/05/26 10:43:06;;;;;;;20.35;4.72;;;;;;;16.89;51.50;99526.59;5029164;28;20474;-65
2022/05/26 10:45:42;;;;;;;18.55;3.33;;;;;;;16.72;51.08;99516.00;5042757;28;20021;-68
2022/05/26 10:48:08;;;;;;;22.13;4.35;;;;;;;17.00;51.96;99534.78;5044480;28;20084;-67
2022/05/26 10:50:45;;;;;;;21.00;4.50;;;;;;;17.44;50.89;99520.38;5044269;28;20037;-66
2022/05/26 10:53:40;;;;;;;19.10;4.10;;;;;;;18.16;49.13;99506.16;5044351;28;20018;-70
2022/05/26 10:56:38;;;;;;;14.70;3.17;;;;;;;18.21;47.21;99529.56;5042339;28;20113;-68
2022/05/26 10:59:13;;;;;;;18.08;3.70;;;;;;;17.82;47.16;99539.47;5043979;28;20041;-67
2022/05/26 11:01:45;;;;;;;16.83;3.17;;;;;;;17.59;47.71;99547.59;5058756;28;20013;-66
2022/05/26 11:04:29;;;;;;;23.75;4.78;;;;;;;17.43;48.22;99554.56;5044574;28;20449;-67
2022/05/26 11:06:59;;;;;;;14.40;4.28;;;;;;;17.11;48.84;99547.38;5044702;28;20063;-74
2022/05/26 11:09:34;;;;;;;17.92;3.08;;;;;;;16.85;48.93;99547.72;5043662;28;20017;-74
2022/05/26 11:12:04;;;;;;;17.70;3.28;;;;;;;16.64;49.62;99551.38;5044602;28;20113;-74
2022/05/26 11:18:20;;;;;;;17.27;4.30;;;;;;;16.35;50.01;99541.34;5044813;28;20036;-76
2022/05/26 11:20:57;;;;;;;17.70;3.50;;;;;;;16.08;51.34;99552.16;5035456;28;20040;-76
2022/05/26 11:23:25;;;;;;;21.02;3.10;;;;;;;15.80;51.89;99562.06;5043309;28;20046;-76
2022/05/26 11:25:59;;;;;;;18.77;3.92;;;;;;;15.63;52.67;99562.81;5044450;28;20044;-75
2022/05/26 11:28:34;;;;;;;16.42;3.95;;;;;;;15.53;53.01;99566.75;5044384;28;20048;-76
2022/05/26 11:36:52;;;;;;;14.30;3.85;;;;;;;15.19;53.80;99558.53;5044506;28;20067;-73
2022/05/26 11:39:34;;;;;;;15.35;3.13;;;;;;;15.02;54.62;99574.91;5043081;28;20056;-74
2022/05/26 11:42:03;;;;;;;18.15;3.40;;;;;;;15.01;54.77;99571.47;5072509;28;20044;-75
2022/05/26 11:44:41;;;;;;;29.27;3.83;;;;;;;14.97;54.38;99575.94;5066052;28;20035;-75
2022/05/26 11:47:31;;;;;;;18.60;2.85;;;;;;;14.97;53.94;99552.41;5083963;28;20028;-75
2022/05/26 11:49:56;;;;;;;19.08;3.35;;;;;;;14.73;54.45;99569.88;5084147;28;20384;-76
2022/05/26 11:52:34;;;;;;;24.17;3.60;;;;;;;14.70;55.32;99572.63;5083901;28;20127;-75
2022/05/26 11:55:02;;;;;;;18.85;4.18;;;;;;;14.60;55.68;99580.00;5083974;28;20082;-76
2022/05/26 11:57:38;;;;;;;14.55;3.58;;;;;;;14.61;56.47;99587.78;5083801;28;20016;-73
2022/05/26 12:00:39;;;;;;;24.30;3.53;;;;;;;14.63;56.07;99588.53;5084067;28;20045;-77
2022/05/26 12:03:20;;;;;;;18.33;3.17;;;;;;;14.64;55.50;99602.47;5083774;28;20472;-76
2022/05/26 12:05:48;;;;;;;15.45;3.45;;;;;;;14.61;55.61;99594.75;5083777;28;20458;-76
2022/05/26 12:08:27;;;;;;;14.60;2.72;;;;;;;14.59;55.21;99593.94;5083683;28;20047;-74
2022/05/26 12:10:56;;;;;;;16.25;2.70;;;;;;;14.52;55.59;99614.22;5065280;28;20054;-76
2022/05/26 12:13:27;;;;;;;16.05;4.82;;;;;;;14.45;55.73;99603.16;5083805;28;20043;-76
2022/05/26 12:16:22;;;;;;;9.88;2.25;;;;;;;14.57;55.84;99609.66;5065599;28;20039;-72
2022/05/26 12:18:55;;;;;;;10.00;3.13;;;;;;;14.53;55.89;99618.53;5083568;28;20032;-75
2022/05/26 12:21:27;;;;;;;21.38;4.32;;;;;;;14.33;56.11;99607.06;5083096;28;20053;-75
2022/05/26 12:23:53;;;;;;;18.30;4.88;;;;;;;14.25;56.78;99609.97;5083765;28;20020;-74
2022/05/26 12:26:30;;;;;;;21.27;3.40;;;;;;;14.29;56.50;99615.06;5066127;28;20051;-74
2022/05/26 12:29:33;;;;;;;12.65;3.60;;;;;;;14.28;56.67;99608.16;5084772;28;20024;-76
2022/05/26 12:32:11;;;;;;;19.63;3.53;;;;;;;14.26;57.01;99623.88;5064877;28;20035;-74